sensor_id;sensor_type;location;lat;lon;timestamp;temperature;humidity
58566;DHT22;47788;46.172;-1.158;2022-07-19T00:02:04;30.30;53.00
58566;DHT22;47788;46.172;-1.158;2022-07-19T00:04:30;30.30;53.30
58566;DHT22;47788;46.172;-1.158;2022-07-19T00:06:56;30.30;53.10
58566;DHT22;47788;46.172;-1.158;2022-07-19T00:09:23;30.30;53.50
58566;DHT22;47788;46.172;-1.158;2022-07-19T00:11:49;30.30;53.30
58566;DHT22;47788;46.172;-1.158;2022-07-19T00:14:15;30.20;53.70
58566;DHT22;47788;46.172;-1.158;2022-07-19T00:16:41;30.20;53.50
58566;DHT22;47788;46.172;-1.158;2022-07-19T00:19:07;30.20;53.60
58566;DHT22;47788;46.172;-1.158;2022-07-19T00:21:33;30.20;54.00
58566;DHT22;47788;46.172;-1.158;2022-07-19T00:23:58;30.10;53.80
58566;DHT22;47788;46.172;-1.158;2022-07-19T00:26:28;30.10;54.20
58566;DHT22;47788;46.172;-1.158;2022-07-19T00:28:55;30.10;54.00
58566;DHT22;47788;46.172;-1.158;2022-07-19T00:31:22;30.00;54.20
58566;DHT22;47788;46.172;-1.158;2022-07-19T00:33:48;30.00;54.10
58566;DHT22;47788;46.172;-1.158;2022-07-19T00:36:14;30.00;54.10
58566;DHT22;47788;46.172;-1.158;2022-07-19T00:38:40;30.00;54.70
58566;DHT22;47788;46.172;-1.158;2022-07-19T00:41:05;29.90;54.40
58566;DHT22;47788;46.172;-1.158;2022-07-19T00:43:31;30.00;54.50
58566;DHT22;47788;46.172;-1.158;2022-07-19T00:45:57;30.00;54.60
58566;DHT22;47788;46.172;-1.158;2022-07-19T00:48:23;30.00;54.80
58566;DHT22;47788;46.172;-1.158;2022-07-19T00:50:49;29.90;55.20
58566;DHT22;47788;46.172;-1.158;2022-07-19T00:53:15;29.80;56.00
58566;DHT22;47788;46.172;-1.158;2022-07-19T00:55:44;29.70;56.80
58566;DHT22;47788;46.172;-1.158;2022-07-19T00:58:11;29.50;58.20
58566;DHT22;47788;46.172;-1.158;2022-07-19T01:00:37;29.40;59.00
58566;DHT22;47788;46.172;-1.158;2022-07-19T01:03:04;29.30;59.90
58566;DHT22;47788;46.172;-1.158;2022-07-19T01:05:31;29.20;60.80
58566;DHT22;47788;46.172;-1.158;2022-07-19T01:07:57;29.10;62.10
58566;DHT22;47788;46.172;-1.158;2022-07-19T01:10:22;28.90;63.60
58566;DHT22;47788;46.172;-1.158;2022-07-19T01:12:48;28.70;64.90
58566;DHT22;47788;46.172;-1.158;2022-07-19T01:15:18;28.60;66.10
58566;DHT22;47788;46.172;-1.158;2022-07-19T01:17:45;28.50;67.40
58566;DHT22;47788;46.172;-1.158;2022-07-19T01:20:11;28.40;69.10
58566;DHT22;47788;46.172;-1.158;2022-07-19T01:22:37;28.30;70.00
58566;DHT22;47788;46.172;-1.158;2022-07-19T01:25:04;28.30;71.10
58566;DHT22;47788;46.172;-1.158;2022-07-19T01:27:30;28.10;72.50
58566;DHT22;47788;46.172;-1.158;2022-07-19T01:29:55;28.00;73.80
58566;DHT22;47788;46.172;-1.158;2022-07-19T01:32:21;27.90;74.80
58566;DHT22;47788;46.172;-1.158;2022-07-19T01:34:47;27.90;75.80
58566;DHT22;47788;46.172;-1.158;2022-07-19T01:37:12;27.70;76.80
58566;DHT22;47788;46.172;-1.158;2022-07-19T01:39:38;27.70;78.10
58566;DHT22;47788;46.172;-1.158;2022-07-19T01:42:04;27.50;80.20
58566;DHT22;47788;46.172;-1.158;2022-07-19T01:44:29;27.40;82.10
58566;DHT22;47788;46.172;-1.158;2022-07-19T01:46:55;27.30;83.80
58566;DHT22;47788;46.172;-1.158;2022-07-19T01:49:21;27.20;85.10
58566;DHT22;47788;46.172;-1.158;2022-07-19T01:51:46;27.10;87.10
58566;DHT22;47788;46.172;-1.158;2022-07-19T01:54:12;27.00;88.10
58566;DHT22;47788;46.172;-1.158;2022-07-19T01:56:42;26.80;89.70
58566;DHT22;47788;46.172;-1.158;2022-07-19T01:59:08;26.60;90.70
58566;DHT22;47788;46.172;-1.158;2022-07-19T02:01:33;26.60;91.40
58566;DHT22;47788;46.172;-1.158;2022-07-19T02:03:59;26.50;91.80
58566;DHT22;47788;46.172;-1.158;2022-07-19T02:06:25;26.40;92.30
58566;DHT22;47788;46.172;-1.158;2022-07-19T02:08:50;26.30;92.70
58566;DHT22;47788;46.172;-1.158;2022-07-19T02:11:16;26.20;93.50
58566;DHT22;47788;46.172;-1.158;2022-07-19T02:14:00;26.00;94.60
58566;DHT22;47788;46.172;-1.158;2022-07-19T02:16:26;25.90;95.50
58566;DHT22;47788;46.172;-1.158;2022-07-19T02:18:52;25.80;96.50
58566;DHT22;47788;46.172;-1.158;2022-07-19T02:21:17;25.70;97.10
58566;DHT22;47788;46.172;-1.158;2022-07-19T02:23:43;25.60;97.50
58566;DHT22;47788;46.172;-1.158;2022-07-19T02:26:09;25.70;97.60
58566;DHT22;47788;46.172;-1.158;2022-07-19T02:28:35;25.80;98.00
58566;DHT22;47788;46.172;-1.158;2022-07-19T02:31:00;25.70;98.00
58566;DHT22;47788;46.172;-1.158;2022-07-19T02:33:26;25.70;98.10
58566;DHT22;47788;46.172;-1.158;2022-07-19T02:35:51;25.60;98.50
58566;DHT22;47788;46.172;-1.158;2022-07-19T02:38:17;25.60;98.90
58566;DHT22;47788;46.172;-1.158;2022-07-19T02:40:43;25.50;99.50
58566;DHT22;47788;46.172;-1.158;2022-07-19T02:43:08;25.40;99.90
58566;DHT22;47788;46.172;-1.158;2022-07-19T02:45:34;25.40;99.90
58566;DHT22;47788;46.172;-1.158;2022-07-19T02:48:00;25.40;99.90
58566;DHT22;47788;46.172;-1.158;2022-07-19T02:50:28;25.40;99.90
58566;DHT22;47788;46.172;-1.158;2022-07-19T02:52:53;25.30;99.90
58566;DHT22;47788;46.172;-1.158;2022-07-19T02:55:19;25.30;99.90
58566;DHT22;47788;46.172;-1.158;2022-07-19T02:57:45;25.20;99.90
58566;DHT22;47788;46.172;-1.158;2022-07-19T03:00:11;25.20;99.90
58566;DHT22;47788;46.172;-1.158;2022-07-19T03:02:38;25.30;99.90
58566;DHT22;47788;46.172;-1.158;2022-07-19T03:05:04;25.30;99.90
58566;DHT22;47788;46.172;-1.158;2022-07-19T03:07:30;25.20;99.90
58566;DHT22;47788;46.172;-1.158;2022-07-19T03:09:56;25.10;99.90
58566;DHT22;47788;46.172;-1.158;2022-07-19T03:12:22;24.90;99.90
58566;DHT22;47788;46.172;-1.158;2022-07-19T03:14:47;24.80;99.90
58566;DHT22;47788;46.172;-1.158;2022-07-19T03:17:13;24.80;99.90
58566;DHT22;47788;46.172;-1.158;2022-07-19T03:19:38;24.70;99.90
58566;DHT22;47788;46.172;-1.158;2022-07-19T03:22:04;24.60;99.90
58566;DHT22;47788;46.172;-1.158;2022-07-19T03:24:30;24.40;99.90
58566;DHT22;47788;46.172;-1.158;2022-07-19T03:26:55;24.20;99.90
58566;DHT22;47788;46.172;-1.158;2022-07-19T03:29:21;23.90;99.90
58566;DHT22;47788;46.172;-1.158;2022-07-19T03:31:47;23.70;99.90
58566;DHT22;47788;46.172;-1.158;2022-07-19T03:34:12;23.60;99.90
58566;DHT22;47788;46.172;-1.158;2022-07-19T03:36:38;23.60;99.90
58566;DHT22;47788;46.172;-1.158;2022-07-19T03:39:04;23.60;99.90
58566;DHT22;47788;46.172;-1.158;2022-07-19T03:41:30;23.60;99.90
58566;DHT22;47788;46.172;-1.158;2022-07-19T03:43:55;23.60;99.90
58566;DHT22;47788;46.172;-1.158;2022-07-19T03:46:21;23.60;99.90
58566;DHT22;47788;46.172;-1.158;2022-07-19T03:48:48;23.50;99.90
58566;DHT22;47788;46.172;-1.158;2022-07-19T03:51:14;23.50;99.90
58566;DHT22;47788;46.172;-1.158;2022-07-19T03:53:39;23.50;99.90
58566;DHT22;47788;46.172;-1.158;2022-07-19T03:56:05;23.40;99.90
58566;DHT22;47788;46.172;-1.158;2022-07-19T03:58:31;23.40;99.90
58566;DHT22;47788;46.172;-1.158;2022-07-19T04:00:57;23.30;99.90
58566;DHT22;47788;46.172;-1.158;2022-07-19T04:03:23;23.20;99.90
58566;DHT22;47788;46.172;-1.158;2022-07-19T04:05:49;23.30;99.90
58566;DHT22;47788;46.172;-1.158;2022-07-19T04:08:14;23.30;99.90
58566;DHT22;47788;46.172;-1.158;2022-07-19T04:10:41;23.20;99.90
58566;DHT22;47788;46.172;-1.158;2022-07-19T04:13:07;23.30;99.90
58566;DHT22;47788;46.172;-1.158;2022-07-19T04:15:33;23.30;99.90
58566;DHT22;47788;46.172;-1.158;2022-07-19T04:17:58;23.30;99.90
58566;DHT22;47788;46.172;-1.158;2022-07-19T04:20:24;23.40;99.90
58566;DHT22;47788;46.172;-1.158;2022-07-19T04:22:50;23.30;99.90
58566;DHT22;47788;46.172;-1.158;2022-07-19T04:25:16;23.40;99.90
58566;DHT22;47788;46.172;-1.158;2022-07-19T04:27:42;23.30;99.90
58566;DHT22;47788;46.172;-1.158;2022-07-19T04:30:08;23.30;99.90
58566;DHT22;47788;46.172;-1.158;2022-07-19T04:32:34;23.30;99.90
58566;DHT22;47788;46.172;-1.158;2022-07-19T04:35:01;23.40;99.90
58566;DHT22;47788;46.172;-1.158;2022-07-19T04:37:26;23.40;99.90
58566;DHT22;47788;46.172;-1.158;2022-07-19T04:39:52;23.50;99.90
58566;DHT22;47788;46.172;-1.158;2022-07-19T04:42:18;23.60;99.90
58566;DHT22;47788;46.172;-1.158;2022-07-19T04:44:43;23.70;99.90
58566;DHT22;47788;46.172;-1.158;2022-07-19T04:47:09;23.70;99.90
58566;DHT22;47788;46.172;-1.158;2022-07-19T04:49:35;23.80;99.90
58566;DHT22;47788;46.172;-1.158;2022-07-19T04:52:00;23.80;99.90
58566;DHT22;47788;46.172;-1.158;2022-07-19T04:54:26;23.90;99.90
58566;DHT22;47788;46.172;-1.158;2022-07-19T04:56:52;23.80;99.90
58566;DHT22;47788;46.172;-1.158;2022-07-19T04:59:18;23.80;99.90
58566;DHT22;47788;46.172;-1.158;2022-07-19T05:01:44;23.80;99.90
58566;DHT22;47788;46.172;-1.158;2022-07-19T05:04:09;23.80;99.90
58566;DHT22;47788;46.172;-1.158;2022-07-19T05:06:35;23.70;99.90
58566;DHT22;47788;46.172;-1.158;2022-07-19T05:09:01;23.70;99.90
58566;DHT22;47788;46.172;-1.158;2022-07-19T05:11:27;23.70;99.90
